Time;durP1;ratioP1;P1;durP2;ratioP2;P2;SDS_P1;SDS_P2;PMS_P1;PMS_P2;Temp;Humidity;BMP_temperature;BMP_pressure;BME280_temperature;BME280_humidity;BME280_pressure;Samples;Min_cycle;Max_cycle;Signal;HPM_P1;HPM_P2
2021/07/24 00:01:58;;;;;;;12.93;10.13;;;;;;;;;;5097656;28;20475;-57
2021/07/24 00:04:25;;;;;;;13.93;10.30;;;;;;;;;;5095091;28;21000;-60
2021/07/24 00:06:55;;;;;;;12.80;7.80;;;;;;;;;;5097617;28;20471;-59
2021/07/24 00:09:22;;;;;;;16.83;9.20;;;;;;;;;;5089114;28;20457;-60
2021/07/24 00:11:49;;;;;;;9.03;7.50;;;;;;;;;;5096729;28;20443;-60
2021/07/24 00:14:18;;;;;;;15.27;9.33;;;;;;;;;;5097471;28;20459;-58
2021/07/24 00:17:17;;;;;;;11.47;8.80;;;;;;;;;;5096856;28;20456;-61
2021/07/24 00:19:44;;;;;;;63.83;51.97;;;;;;;;;;5096103;28;20460;-58
2021/07/24 00:22:12;;;;;;;24.17;19.77;;;;;;;;;;5093862;28;20955;-59
2021/07/24 00:27:43;;;;;;;16.60;13.40;;;;;;;;;;5077319;28;20962;-58
2021/07/24 00:30:14;;;;;;;10.10;9.03;;;;;;;;;;5083515;28;20444;-60
2021/07/24 00:33:13;;;;;;;18.93;9.63;;;;;;;;;;5097693;28;20448;-59
2021/07/24 00:35:40;;;;;;;21.10;17.20;;;;;;;;;;5095632;28;20499;-61
2021/07/24 00:38:08;;;;;;;32.83;22.93;;;;;;;;;;5097306;28;20467;-60
2021/07/24 00:40:44;;;;;;;15.47;10.30;;;;;;;;;;5081154;28;20495;-59
2021/07/24 00:43:11;;;;;;;17.33;13.53;;;;;;;;;;5105737;28;20487;-59
2021/07/24 00:45:43;;;;;;;54.50;42.20;;;;;;;;;;5118005;28;20496;-59
2021/07/24 00:48:12;;;;;;;20.33;15.10;;;;;;;;;;5117762;28;20482;-61
2021/07/24 00:50:39;;;;;;;23.63;16.60;;;;;;;;;;5117141;28;20496;-59
2021/07/24 00:53:34;;;;;;;19.17;14.43;;;;;;;;;;5096939;28;20459;-59
2021/07/24 00:56:04;;;;;;;27.77;18.20;;;;;;;;;;5097465;28;20515;-61
2021/07/24 00:59:16;;;;;;;24.90;17.90;;;;;;;;;;5109419;28;20767;-60
2021/07/24 01:01:46;;;;;;;15.83;11.70;;;;;;;;;;5117612;28;20439;-59
2021/07/24 01:04:32;;;;;;;10.97;9.30;;;;;;;;;;5117208;28;20451;-60
2021/07/24 01:07:03;;;;;;;11.57;9.50;;;;;;;;;;5116753;28;20494;-60
2021/07/24 01:09:30;;;;;;;32.20;21.57;;;;;;;;;;5116412;28;20455;-61
2021/07/24 01:11:58;;;;;;;20.40;13.30;;;;;;;;;;5116615;28;20455;-58
2021/07/24 01:14:25;;;;;;;13.97;10.67;;;;;;;;;;5116875;28;20465;-60
2021/07/24 01:16:56;;;;;;;12.53;9.03;;;;;;;;;;5116734;28;20447;-60
2021/07/24 01:19:24;;;;;;;14.23;9.83;;;;;;;;;;5116025;28;20459;-60
2021/07/24 01:21:53;;;;;;;26.13;15.13;;;;;;;;;;5115842;28;20459;-60
2021/07/24 01:24:25;;;;;;;10.80;8.60;;;;;;;;;;5115927;28;20488;-57
2021/07/24 01:26:52;;;;;;;19.13;10.33;;;;;;;;;;5107521;28;20498;-60
2021/07/24 01:29:21;;;;;;;11.70;8.93;;;;;;;;;;5115190;28;20454;-60
2021/07/24 01:31:54;;;;;;;20.63;14.67;;;;;;;;;;5115611;28;20485;-60
2021/07/24 01:34:22;;;;;;;12.07;10.80;;;;;;;;;;5115533;28;20477;-58
2021/07/24 01:36:49;;;;;;;19.57;14.77;;;;;;;;;;5115120;28;20463;-60
2021/07/24 01:39:18;;;;;;;13.33;10.97;;;;;;;;;;5115414;28;20463;-60
2021/07/24 01:41:45;;;;;;;14.40;11.30;;;;;;;;;;5115513;28;20505;-59
2021/07/24 01:44:40;;;;;;;16.47;11.57;;;;;;;;;;5131159;28;20419;-57
2021/07/24 01:47:07;;;;;;;11.80;9.67;;;;;;;;;;5135287;28;20482;-61
2021/07/24 01:55:13;;;;;;;12.90;9.50;;;;;;;;;;5135699;28;20428;-61
2021/07/24 01:57:43;;;;;;;13.37;10.30;;;;;;;;;;5135991;28;20500;-61
2021/07/24 02:00:11;;;;;;;14.53;10.40;;;;;;;;;;5135335;28;20517;-58
2021/07/24 02:02:38;;;;;;;16.13;13.83;;;;;;;;;;5135001;28;20494;-60
2021/07/24 02:05:30;;;;;;;14.20;11.50;;;;;;;;;;5118616;28;20446;-59
2021/07/24 02:07:59;;;;;;;13.57;11.00;;;;;;;;;;5115894;28;20517;-60
2021/07/24 02:10:31;;;;;;;19.80;14.60;;;;;;;;;;5115852;28;20493;-60
2021/07/24 02:13:18;;;;;;;25.23;19.13;;;;;;;;;;5115927;28;20457;-61
2021/07/24 02:15:45;;;;;;;17.13;13.03;;;;;;;;;;5115633;28;20457;-60
2021/07/24 02:18:14;;;;;;;12.77;10.60;;;;;;;;;;5114929;28;20447;-60
2021/07/24 02:20:50;;;;;;;12.50;11.17;;;;;;;;;;5119343;28;20471;-60
2021/07/24 02:23:17;;;;;;;10.87;9.70;;;;;;;;;;5136155;28;20483;-59
2021/07/24 02:25:46;;;;;;;14.57;11.00;;;;;;;;;;5136130;28;20475;-60
2021/07/24 02:28:15;;;;;;;11.40;9.23;;;;;;;;;;5136157;28;20489;-60
2021/07/24 02:30:43;;;;;;;16.93;10.70;;;;;;;;;;5136113;28;20487;-60
2021/07/24 02:33:10;;;;;;;15.67;11.30;;;;;;;;;;5135510;28;20459;-60
2021/07/24 02:35:37;;;;;;;14.97;12.00;;;;;;;;;;5135211;28;20431;-60
2021/07/24 02:38:05;;;;;;;12.53;10.00;;;;;;;;;;5127447;28;20542;-60
2021/07/24 02:40:40;;;;;;;12.87;11.13;;;;;;;;;;5115525;28;20450;-60
2021/07/24 02:43:10;;;;;;;16.73;10.23;;;;;;;;;;5114661;28;20518;-59
2021/07/24 02:45:37;;;;;;;14.73;10.80;;;;;;;;;;5115612;28;20466;-60
2021/07/24 02:48:10;;;;;;;17.87;11.87;;;;;;;;;;5114832;28;20490;-60
2021/07/24 02:50:37;;;;;;;14.10;12.60;;;;;;;;;;5115109;28;20462;-60
2021/07/24 02:53:04;;;;;;;14.67;11.80;;;;;;;;;;5116833;28;20441;-59
2021/07/24 02:55:54;;;;;;;19.97;12.30;;;;;;;;;;5135618;28;20475;-59
2021/07/24 02:58:23;;;;;;;14.50;10.60;;;;;;;;;;5135751;28;20490;-59
2021/07/24 03:00:50;;;;;;;17.93;11.60;;;;;;;;;;5135614;28;20458;-58
2021/07/24 03:03:18;;;;;;;15.57;10.67;;;;;;;;;;5135464;28;20467;-58
2021/07/24 03:05:46;;;;;;;13.60;9.93;;;;;;;;;;5135099;28;20452;-57
2021/07/24 03:08:21;;;;;;;12.23;10.93;;;;;;;;;;5135774;28;20472;-59
2021/07/24 03:13:53;;;;;;;16.17;10.87;;;;;;;;;;5127225;28;20877;-58
2021/07/24 03:16:20;;;;;;;13.83;10.00;;;;;;;;;;5115019;28;20458;-59
2021/07/24 03:18:47;;;;;;;13.33;11.50;;;;;;;;;;5121740;28;20440;-58
2021/07/24 03:21:15;;;;;;;13.40;11.20;;;;;;;;;;5135252;28;20468;-59
2021/07/24 03:23:43;;;;;;;15.10;11.30;;;;;;;;;;5135205;28;20757;-62
2021/07/24 03:26:11;;;;;;;14.80;10.23;;;;;;;;;;5135486;28;20458;-59
2021/07/24 03:28:38;;;;;;;13.53;10.60;;;;;;;;;;5135129;28;20476;-59
2021/07/24 03:31:08;;;;;;;12.30;9.60;;;;;;;;;;5135447;28;20558;-59
2021/07/24 03:33:38;;;;;;;17.00;11.47;;;;;;;;;;5134682;28;20482;-59
2021/07/24 03:36:05;;;;;;;14.77;11.73;;;;;;;;;;5135128;28;20484;-60
2021/07/24 03:38:35;;;;;;;12.60;10.50;;;;;;;;;;5135498;28;20437;-61
2021/07/24 03:41:04;;;;;;;15.20;12.80;;;;;;;;;;5135027;28;20483;-60
2021/07/24 03:43:31;;;;;;;15.43;11.23;;;;;;;;;;5135132;28;20484;-60
2021/07/24 03:49:03;;;;;;;15.23;11.40;;;;;;;;;;5138625;28;20512;-59
2021/07/24 03:51:33;;;;;;;14.77;10.87;;;;;;;;;;5138297;28;20433;-61
2021/07/24 03:54:00;;;;;;;15.10;11.87;;;;;;;;;;5138757;28;20453;-59
2021/07/24 03:56:28;;;;;;;17.07;11.07;;;;;;;;;;5126534;28;20455;-60
2021/07/24 03:59:05;;;;;;;15.37;11.70;;;;;;;;;;5118164;28;20459;-58
2021/07/24 04:01:33;;;;;;;15.93;11.27;;;;;;;;;;5120348;28;20472;-60
2021/07/24 04:04:06;;;;;;;11.73;10.20;;;;;;;;;;5134997;28;20454;-57
2021/07/24 04:06:33;;;;;;;12.90;10.47;;;;;;;;;;5130596;28;20559;-60
2021/07/24 04:09:02;;;;;;;16.10;11.20;;;;;;;;;;5137978;28;20505;-60
2021/07/24 04:11:30;;;;;;;13.13;10.50;;;;;;;;;;5137819;28;20500;-60
2021/07/24 04:13:57;;;;;;;16.10;10.87;;;;;;;;;;5138352;28;20422;-60
2021/07/24 04:16:24;;;;;;;15.13;10.93;;;;;;;;;;5138233;28;20457;-59
2021/07/24 04:19:01;;;;;;;14.80;11.17;;;;;;;;;;5138365;28;20480;-60
2021/07/24 04:21:30;;;;;;;15.70;10.87;;;;;;;;;;5138178;28;20457;-60
2021/07/24 04:23:57;;;;;;;12.90;10.40;;;;;;;;;;5126673;28;20455;-58
2021/07/24 04:26:28;;;;;;;15.77;11.30;;;;;;;;;;5136117;28;20785;-60
2021/07/24 04:28:56;;;;;;;12.90;11.03;;;;;;;;;;5134900;28;20471;-60
2021/07/24 04:31:23;;;;;;;15.23;9.97;;;;;;;;;;5120320;28;20458;-59
2021/07/24 04:33:59;;;;;;;11.47;10.27;;;;;;;;;;5117534;28;20462;-60
2021/07/24 04:36:26;;;;;;;16.33;10.73;;;;;;;;;;5135519;28;20456;-60
2021/07/24 04:38:55;;;;;;;14.53;9.70;;;;;;;;;;5129815;28;20482;-59
2021/07/24 04:41:35;;;;;;;12.60;10.37;;;;;;;;;;5117735;28;20427;-57
2021/07/24 04:44:03;;;;;;;14.83;10.27;;;;;;;;;;5097124;28;20455;-60
2021/07/24 04:46:30;;;;;;;13.60;10.20;;;;;;;;;;5097163;28;20574;-60
2021/07/24 04:49:17;;;;;;;12.50;9.40;;;;;;;;;;5099909;28;20481;-59
2021/07/24 04:51:50;;;;;;;17.80;10.30;;;;;;;;;;5115043;28;20436;-60
2021/07/24 04:54:21;;;;;;;12.10;10.20;;;;;;;;;;5117906;28;20454;-58
2021/07/24 04:59:53;;;;;;;10.77;9.07;;;;;;;;;;5113112;28;20481;-60
2021/07/24 05:02:20;;;;;;;11.47;9.50;;;;;;;;;;5099699;28;20437;-59
2021/07/24 05:05:07;;;;;;;15.20;10.20;;;;;;;;;;5106555;28;20510;-60
2021/07/24 05:07:34;;;;;;;13.30;10.07;;;;;;;;;;5096090;28;20495;-59
2021/07/24 05:10:08;;;;;;;14.70;10.60;;;;;;;;;;5096166;28;20466;-57
2021/07/24 05:12:45;;;;;;;14.03;9.80;;;;;;;;;;5116253;28;20473;-60
2021/07/24 05:15:12;;;;;;;15.53;10.30;;;;;;;;;;5116480;28;20450;-60
2021/07/24 05:17:41;;;;;;;13.30;10.43;;;;;;;;;;5116723;28;20446;-59
2021/07/24 05:20:43;;;;;;;13.23;10.00;;;;;;;;;;5116123;28;20471;-59
2021/07/24 05:23:12;;;;;;;17.20;9.93;;;;;;;;;;5099866;28;20592;-53
2021/07/24 05:25:40;;;;;;;13.60;10.20;;;;;;;;;;5096624;28;20471;-59
2021/07/24 05:28:11;;;;;;;28.67;11.40;;;;;;;;;;5096399;28;20480;-56
2021/07/24 05:30:49;;;;;;;13.60;10.53;;;;;;;;;;5096764;28;20454;-60
2021/07/24 05:33:16;;;;;;;10.83;9.50;;;;;;;;;;5096816;28;20436;-61
2021/07/24 05:35:44;;;;;;;11.60;10.00;;;;;;;;;;5086659;28;20898;-59
2021/07/24 05:38:13;;;;;;;14.57;9.93;;;;;;;;;;5096706;28;20452;-59
2021/07/24 05:40:53;;;;;;;15.63;10.53;;;;;;;;;;5092597;28;20447;-56
2021/07/24 05:43:20;;;;;;;13.53;10.80;;;;;;;;;;5107850;28;20486;-59
2021/07/24 05:45:49;;;;;;;16.13;10.70;;;;;;;;;;5106642;28;20444;-61
2021/07/24 05:48:25;;;;;;;10.83;8.13;;;;;;;;;;5098254;28;20733;-60
2021/07/24 05:50:54;;;;;;;13.07;8.77;;;;;;;;;;5094785;28;20476;-60
2021/07/24 05:53:22;;;;;;;12.47;10.73;;;;;;;;;;5079464;28;20450;-60
2021/07/24 05:56:13;;;;;;;12.60;10.07;;;;;;;;;;5068730;28;20449;-59
2021/07/24 05:58:42;;;;;;;10.80;9.17;;;;;;;;;;5089284;28;20440;-58
2021/07/24 06:01:11;;;;;;;13.30;10.70;;;;;;;;;;5078058;28;20467;-60
2021/07/24 06:03:38;;;;;;;13.47;10.00;;;;;;;;;;5084307;28;20436;-59
2021/07/24 06:06:06;;;;;;;12.30;9.67;;;;;;;;;;5076625;28;20437;-60
2021/07/24 06:08:33;;;;;;;10.63;8.23;;;;;;;;;;5085054;28;20527;-60
2021/07/24 06:11:01;;;;;;;13.40;9.20;;;;;;;;;;5095785;28;20515;-59
2021/07/24 06:13:28;;;;;;;11.07;9.40;;;;;;;;;;5096214;28;20429;-59
2021/07/24 06:16:16;;;;;;;15.00;9.97;;;;;;;;;;5096460;28;20489;-62
2021/07/24 06:18:45;;;;;;;15.97;10.40;;;;;;;;;;5096340;28;20448;-60
2021/07/24 06:21:16;;;;;;;11.97;10.10;;;;;;;;;;5079580;28;20437;-60
2021/07/24 06:23:58;;;;;;;12.20;9.93;;;;;;;;;;5081512;28;20452;-61
2021/07/24 06:26:25;;;;;;;12.13;9.37;;;;;;;;;;5086016;28;20445;-60
2021/07/24 06:29:02;;;;;;;14.20;10.40;;;;;;;;;;5076055;28;20468;-60
2021/07/24 06:31:43;;;;;;;12.90;10.00;;;;;;;;;;5088652;28;20448;-57
2021/07/24 06:34:12;;;;;;;16.03;9.63;;;;;;;;;;5076172;28;20441;-59
2021/07/24 06:36:51;;;;;;;12.30;9.70;;;;;;;;;;5088730;28;20471;-59
2021/07/24 06:39:48;;;;;;;16.33;10.20;;;;;;;;;;5096048;28;20443;-60
2021/07/24 06:42:17;;;;;;;12.40;9.40;;;;;;;;;;5096432;28;20451;-58
2021/07/24 06:44:44;;;;;;;16.80;10.77;;;;;;;;;;5095897;28;20498;-58
2021/07/24 06:47:14;;;;;;;12.23;9.30;;;;;;;;;;5096799;28;20452;-58
2021/07/24 06:49:43;;;;;;;13.13;9.83;;;;;;;;;;5100411;28;20484;-58
2021/07/24 06:52:10;;;;;;;14.20;10.07;;;;;;;;;;5136957;28;20537;-59
2021/07/24 06:54:51;;;;;;;11.20;10.07;;;;;;;;;;5133900;28;20449;-58
2021/07/24 06:57:18;;;;;;;14.33;10.70;;;;;;;;;;5134605;28;20465;-59
2021/07/24 06:59:45;;;;;;;11.80;9.77;;;;;;;;;;5136659;28;20462;-59
2021/07/24 07:02:13;;;;;;;12.40;9.20;;;;;;;;;;5135919;28;20454;-58
2021/07/24 07:04:41;;;;;;;13.93;9.80;;;;;;;;;;5137006;28;20423;-60
2021/07/24 07:07:20;;;;;;;12.10;9.70;;;;;;;;;;5128530;28;20442;-59
2021/07/24 07:09:52;;;;;;;13.40;9.80;;;;;;;;;;5124551;28;20485;-59
2021/07/24 07:12:21;;;;;;;11.13;9.30;;;;;;;;;;5131802;28;20519;-62
2021/07/24 07:14:54;;;;;;;12.43;9.40;;;;;;;;;;5122180;28;20508;-58
2021/07/24 07:17:24;;;;;;;12.90;10.60;;;;;;;;;;5136454;28;20454;-56
2021/07/24 07:19:52;;;;;;;12.23;9.83;;;;;;;;;;5137317;28;20477;-58
2021/07/24 07:22:33;;;;;;;11.83;9.93;;;;;;;;;;5140391;28;20429;-59
2021/07/24 07:25:00;;;;;;;11.00;8.77;;;;;;;;;;5122982;28;20473;-59
2021/07/24 07:27:28;;;;;;;11.87;8.70;;;;;;;;;;5140445;28;20492;-59
2021/07/24 07:29:57;;;;;;;13.27;9.60;;;;;;;;;;5139847;28;20474;-58
2021/07/24 07:32:28;;;;;;;11.00;9.80;;;;;;;;;;5129483;28;20507;-58
2021/07/24 07:35:03;;;;;;;12.50;10.10;;;;;;;;;;5120669;28;20463;-58
2021/07/24 07:37:33;;;;;;;10.00;8.37;;;;;;;;;;5140022;28;20423;-59
2021/07/24 07:40:03;;;;;;;10.87;8.80;;;;;;;;;;5137546;28;20458;-60
2021/07/24 07:42:31;;;;;;;12.73;9.53;;;;;;;;;;5139276;28;20434;-59
2021/07/24 07:45:09;;;;;;;12.47;9.80;;;;;;;;;;5131437;28;20469;-58
2021/07/24 07:47:37;;;;;;;10.40;9.30;;;;;;;;;;5118294;28;20443;-60
2021/07/24 07:50:05;;;;;;;14.60;10.00;;;;;;;;;;5131302;28;20545;-59
2021/07/24 07:52:58;;;;;;;12.33;9.70;;;;;;;;;;5117846;28;20432;-59
2021/07/24 07:55:28;;;;;;;11.87;9.30;;;;;;;;;;5118332;28;20439;-58
2021/07/24 07:57:57;;;;;;;14.90;9.03;;;;;;;;;;5135040;28;20450;-58
2021/07/24 08:00:24;;;;;;;12.03;9.23;;;;;;;;;;5135451;28;20483;-59
2021/07/24 08:02:52;;;;;;;12.50;8.97;;;;;;;;;;5134915;28;20454;-59
2021/07/24 08:05:55;;;;;;;12.50;9.80;;;;;;;;;;5138463;28;20462;-58
2021/07/24 08:08:23;;;;;;;11.83;10.03;;;;;;;;;;5103107;28;20475;-56
2021/07/24 08:10:52;;;;;;;11.30;8.77;;;;;;;;;;5098547;28;20452;-62
2021/07/24 08:13:26;;;;;;;13.10;10.10;;;;;;;;;;5098609;28;20516;-58
2021/07/24 08:15:54;;;;;;;12.27;9.63;;;;;;;;;;5098372;28;20446;-58
2021/07/24 08:18:22;;;;;;;12.80;9.33;;;;;;;;;;5099022;28;20433;-60
2021/07/24 08:20:59;;;;;;;17.80;9.50;;;;;;;;;;5098386;28;20447;-58
2021/07/24 08:23:36;;;;;;;11.40;10.00;;;;;;;;;;5098588;28;20451;-60
2021/07/24 08:26:06;;;;;;;16.07;9.47;;;;;;;;;;5098338;28;20486;-56
2021/07/24 08:28:40;;;;;;;13.50;8.77;;;;;;;;;;5097917;28;20471;-58
2021/07/24 08:31:07;;;;;;;10.97;8.60;;;;;;;;;;5101427;28;20479;-60
2021/07/24 08:33:36;;;;;;;13.07;9.60;;;;;;;;;;5117093;28;20443;-60
2021/07/24 08:36:04;;;;;;;14.43;10.83;;;;;;;;;;5118071;28;20509;-58
2021/07/24 08:38:32;;;;;;;14.20;10.87;;;;;;;;;;5117984;28;20440;-60
2021/07/24 08:41:06;;;;;;;15.40;9.80;;;;;;;;;;5117942;28;20450;-60
2021/07/24 08:43:35;;;;;;;11.23;8.73;;;;;;;;;;5118047;28;20575;-59
2021/07/24 08:46:03;;;;;;;14.43;10.53;;;;;;;;;;5117816;28;20479;-59
2021/07/24 08:48:34;;;;;;;17.23;10.13;;;;;;;;;;5117418;28;20455;-60
2021/07/24 08:51:07;;;;;;;15.53;10.07;;;;;;;;;;5101843;28;20504;-58
2021/07/24 08:53:40;;;;;;;12.67;9.97;;;;;;;;;;5091334;28;20437;-55
2021/07/24 08:56:14;;;;;;;9.97;8.40;;;;;;;;;;5076497;28;20453;-55
2021/07/24 08:58:46;;;;;;;15.00;10.33;;;;;;;;;;5076841;28;20442;-59
2021/07/24 09:01:39;;;;;;;11.37;9.23;;;;;;;;;;5059889;28;20512;-58
2021/07/24 09:04:13;;;;;;;14.80;9.33;;;;;;;;;;5076263;28;20457;-58
2021/07/24 09:06:41;;;;;;;11.20;9.57;;;;;;;;;;5076990;28;20453;-59
2021/07/24 09:09:49;;;;;;;15.60;10.77;;;;;;;;;;5076874;28;20548;-58
2021/07/24 09:12:20;;;;;;;10.80;9.50;;;;;;;;;;5075004;28;20461;-60
2021/07/24 09:14:52;;;;;;;13.20;9.17;;;;;;;;;;5079045;28;20516;-58
2021/07/24 09:17:20;;;;;;;13.23;9.30;;;;;;;;;;5078160;28;20453;-60
2021/07/24 09:19:47;;;;;;;13.90;10.20;;;;;;;;;;5096374;28;20451;-57
2021/07/24 09:22:53;;;;;;;13.07;10.50;;;;;;;;;;5095633;28;20861;-61
2021/07/24 09:25:25;;;;;;;15.50;9.80;;;;;;;;;;5094657;28;20448;-60
2021/07/24 09:27:54;;;;;;;18.30;11.90;;;;;;;;;;5088503;28;20461;-58
2021/07/24 09:30:32;;;;;;;13.50;10.20;;;;;;;;;;5084179;28;20545;-59
2021/07/24 09:33:07;;;;;;;12.20;9.43;;;;;;;;;;5086167;28;20522;-58
2021/07/24 09:35:38;;;;;;;11.87;10.27;;;;;;;;;;5086460;28;20452;-59
2021/07/24 09:41:03;;;;;;;12.10;9.90;;;;;;;;;;5102932;28;20487;-60
2021/07/24 09:43:35;;;;;;;11.83;10.40;;;;;;;;;;5103328;28;20436;-60
2021/07/24 09:49:34;;;;;;;12.03;10.27;;;;;;;;;;5087048;28;20484;-57
2021/07/24 09:52:23;;;;;;;12.80;9.70;;;;;;;;;;5087094;28;20511;-59
2021/07/24 10:01:05;;;;;;;15.20;11.03;;;;;;;;;;5061137;28;20497;-59
2021/07/24 10:03:35;;;;;;;11.53;8.73;;;;;;;;;;5055924;28;20521;-60
2021/07/24 10:06:07;;;;;;;13.43;12.00;;;;;;;;;;5067844;28;20479;-60
2021/07/24 10:08:34;;;;;;;15.13;9.67;;;;;;;;;;5074055;28;20437;-59
2021/07/24 10:11:02;;;;;;;13.57;10.93;;;;;;;;;;5073406;28;20473;-60
2021/07/24 10:13:32;;;;;;;12.63;10.70;;;;;;;;;;5074245;28;20426;-63
2021/07/24 10:16:09;;;;;;;14.63;11.80;;;;;;;;;;5074621;28;20430;-63
2021/07/24 10:18:36;;;;;;;13.63;11.80;;;;;;;;;;5071390;28;20459;-63
2021/07/24 10:21:05;;;;;;;13.30;11.00;;;;;;;;;;5074811;28;20453;-63
2021/07/24 10:29:26;;;;;;;17.60;12.30;;;;;;;;;;5072276;28;20503;-68
2021/07/24 10:32:00;;;;;;;15.73;12.77;;;;;;;;;;5075254;28;20448;-65
2021/07/24 10:34:31;;;;;;;13.57;10.53;;;;;;;;;;5075159;28;20463;-65
2021/07/24 10:37:24;;;;;;;14.13;11.00;;;;;;;;;;5074247;28;20487;-64
2021/07/24 10:39:53;;;;;;;16.33;13.10;;;;;;;;;;5074609;28;20456;-61
2021/07/24 10:45:46;;;;;;;16.10;12.40;;;;;;;;;;5052339;28;20464;-68
2021/07/24 10:48:23;;;;;;;15.17;11.70;;;;;;;;;;5056586;28;20465;-64
2021/07/24 10:54:09;;;;;;;17.03;12.03;;;;;;;;;;5088266;28;20474;-65
2021/07/24 10:56:41;;;;;;;15.57;12.67;;;;;;;;;;5117622;28;20500;-64
2021/07/24 10:59:20;;;;;;;14.87;11.20;;;;;;;;;;5100957;28;20444;-63
2021/07/24 11:01:51;;;;;;;15.83;13.10;;;;;;;;;;5097377;28;20440;-62
2021/07/24 11:04:52;;;;;;;15.07;13.47;;;;;;;;;;5112802;28;20443;-62
2021/07/24 11:07:43;;;;;;;14.97;12.13;;;;;;;;;;5096771;28;20462;-64
2021/07/24 11:10:19;;;;;;;17.03;11.93;;;;;;;;;;5104973;28;20470;-66
2021/07/24 11:12:49;;;;;;;17.53;14.30;;;;;;;;;;5107404;28;20712;-63
2021/07/24 11:15:21;;;;;;;30.20;23.57;;;;;;;;;;5104661;28;20641;-65
2021/07/24 11:18:19;;;;;;;19.20;13.73;;;;;;;;;;5100646;28;20472;-65
2021/07/24 11:21:09;;;;;;;14.90;13.30;;;;;;;;;;5115648;28;20455;-66
2021/07/24 11:23:56;;;;;;;15.13;13.37;;;;;;;;;;5095842;28;20455;-63
2021/07/24 11:26:34;;;;;;;17.27;13.07;;;;;;;;;;5110700;28;20458;-64
2021/07/24 11:29:04;;;;;;;14.10;12.27;;;;;;;;;;5107065;28;20474;-64
2021/07/24 11:31:36;;;;;;;14.93;11.77;;;;;;;;;;5106219;28;20454;-64
2021/07/24 11:34:18;;;;;;;18.27;13.67;;;;;;;;;;5099789;28;20543;-63
2021/07/24 11:36:49;;;;;;;15.77;12.63;;;;;;;;;;5112807;28;20455;-65
2021/07/24 11:39:28;;;;;;;25.13;13.23;;;;;;;;;;5103343;28;20440;-62
2021/07/24 11:41:56;;;;;;;17.93;13.50;;;;;;;;;;5098799;28;20511;-65
2021/07/24 11:44:28;;;;;;;22.87;13.53;;;;;;;;;;5099556;28;20478;-65
2021/07/24 11:47:07;;;;;;;17.80;14.63;;;;;;;;;;5108089;28;20789;-65
2021/07/24 11:49:34;;;;;;;21.60;15.40;;;;;;;;;;5104636;28;20478;-65
2021/07/24 11:52:02;;;;;;;19.30;13.73;;;;;;;;;;5106828;28;20509;-61
2021/07/24 11:54:35;;;;;;;16.13;14.43;;;;;;;;;;5111655;28;20523;-63
2021/07/24 11:57:03;;;;;;;19.53;15.23;;;;;;;;;;5104794;28;20535;-65
2021/07/24 11:59:34;;;;;;;18.20;15.33;;;;;;;;;;5109107;28;20455;-65
2021/07/24 12:02:22;;;;;;;16.40;14.40;;;;;;;;;;5106217;28;20478;-62
2021/07/24 12:07:47;;;;;;;21.57;14.93;;;;;;;;;;5090491;28;20526;-63
2021/07/24 12:10:14;;;;;;;25.60;17.27;;;;;;;;;;5091546;28;20482;-65
2021/07/24 12:12:55;;;;;;;19.77;15.30;;;;;;;;;;5090184;28;20463;-63
2021/07/24 12:15:47;;;;;;;17.87;14.50;;;;;;;;;;5071029;28;20541;-64
2021/07/24 12:18:35;;;;;;;21.60;15.13;;;;;;;;;;5088693;28;20456;-62
2021/07/24 12:21:13;;;;;;;22.10;17.53;;;;;;;;;;5094495;28;20483;-61
2021/07/24 12:24:01;;;;;;;24.30;16.77;;;;;;;;;;5094313;28;20432;-63
2021/07/24 12:26:31;;;;;;;25.00;16.67;;;;;;;;;;5088324;28;20492;-60
2021/07/24 12:29:01;;;;;;;27.50;17.40;;;;;;;;;;5087511;28;20523;-62
2021/07/24 12:31:35;;;;;;;29.40;20.60;;;;;;;;;;5085811;28;20468;-62
2021/07/24 12:34:17;;;;;;;32.03;18.67;;;;;;;;;;5078284;28;20445;-64
2021/07/24 12:36:56;;;;;;;40.83;21.03;;;;;;;;;;5092190;28;20459;-64
2021/07/24 12:39:24;;;;;;;34.67;20.77;;;;;;;;;;5093921;28;20532;-63
2021/07/24 12:42:03;;;;;;;28.47;18.00;;;;;;;;;;5093718;28;20514;-63
2021/07/24 12:44:31;;;;;;;36.90;20.97;;;;;;;;;;5093209;28;20452;-64
2021/07/24 12:47:11;;;;;;;24.63;18.20;;;;;;;;;;5093684;28;20456;-63
2021/07/24 12:50:00;;;;;;;25.07;17.23;;;;;;;;;;5094296;28;20447;-64
2021/07/24 12:52:30;;;;;;;27.23;19.53;;;;;;;;;;5084532;28;20456;-64
2021/07/24 12:55:09;;;;;;;21.97;16.53;;;;;;;;;;5093485;28;20452;-63
2021/07/24 12:57:38;;;;;;;20.80;17.67;;;;;;;;;;5091388;28;20463;-64
2021/07/24 13:00:07;;;;;;;20.47;16.67;;;;;;;;;;5086006;28;20463;-65
2021/07/24 13:02:35;;;;;;;22.73;16.13;;;;;;;;;;5079382;28;20475;-63
2021/07/24 13:05:12;;;;;;;22.60;15.63;;;;;;;;;;5072195;28;20457;-64
2021/07/24 13:07:51;;;;;;;21.70;16.27;;;;;;;;;;5088137;28;20456;-65
2021/07/24 13:10:22;;;;;;;19.00;15.07;;;;;;;;;;5079519;28;20488;-65
2021/07/24 13:12:54;;;;;;;22.30;17.80;;;;;;;;;;5080138;28;20465;-62
2021/07/24 13:15:22;;;;;;;18.57;15.77;;;;;;;;;;5070970;28;20484;-62
2021/07/24 13:17:50;;;;;;;18.70;16.30;;;;;;;;;;5071948;28;20461;-65
2021/07/24 13:20:30;;;;;;;22.07;17.67;;;;;;;;;;5072998;28;20453;-65
2021/07/24 13:23:01;;;;;;;21.67;17.63;;;;;;;;;;5084443;28;20510;-63
2021/07/24 13:25:43;;;;;;;21.47;17.73;;;;;;;;;;5071912;28;20496;-62
2021/07/24 13:28:21;;;;;;;21.10;18.90;;;;;;;;;;5073195;28;20465;-64
2021/07/24 13:30:50;;;;;;;22.70;18.80;;;;;;;;;;5080719;28;20529;-63
2021/07/24 13:33:33;;;;;;;21.43;19.07;;;;;;;;;;5082482;28;20507;-62
2021/07/24 13:36:03;;;;;;;20.50;17.73;;;;;;;;;;5085265;28;20463;-64
2021/07/24 13:38:32;;;;;;;23.87;19.20;;;;;;;;;;5091736;28;20436;-64
2021/07/24 13:41:16;;;;;;;20.33;17.47;;;;;;;;;;5091589;28;20448;-62
2021/07/24 13:43:43;;;;;;;22.90;19.37;;;;;;;;;;5073428;28;20457;-64
2021/07/24 13:46:11;;;;;;;19.37;15.80;;;;;;;;;;5079015;28;20464;-62
2021/07/24 13:48:38;;;;;;;23.77;20.23;;;;;;;;;;5078150;28;20449;-62
2021/07/24 13:51:12;;;;;;;28.07;23.37;;;;;;;;;;5081125;28;20520;-62
2021/07/24 13:53:43;;;;;;;29.37;23.43;;;;;;;;;;5090198;28;20468;-61
2021/07/24 14:02:09;;;;;;;29.27;23.70;;;;;;;;;;5084434;28;20453;-64
2021/07/24 14:04:41;;;;;;;24.30;19.50;;;;;;;;;;5080811;28;20480;-65
2021/07/24 14:07:09;;;;;;;23.10;20.50;;;;;;;;;;5091265;28;20467;-63
2021/07/24 14:09:41;;;;;;;25.53;19.90;;;;;;;;;;5090809;28;20452;-62
2021/07/24 14:12:14;;;;;;;28.37;22.87;;;;;;;;;;5090378;28;20472;-63
2021/07/24 14:14:42;;;;;;;22.20;17.93;;;;;;;;;;5070922;28;20499;-63
2021/07/24 14:17:09;;;;;;;39.77;32.73;;;;;;;;;;5087142;28;20523;-64
2021/07/24 14:19:47;;;;;;;29.47;24.17;;;;;;;;;;5089820;28;20532;-65
2021/07/24 14:22:15;;;;;;;35.17;29.20;;;;;;;;;;5074320;28;20511;-64
2021/07/24 14:24:44;;;;;;;36.20;29.97;;;;;;;;;;5069927;28;20457;-65
2021/07/24 14:27:36;;;;;;;28.93;23.03;;;;;;;;;;5070898;28;20492;-64
2021/07/24 14:30:03;;;;;;;22.17;18.27;;;;;;;;;;5069209;28;20530;-63
2021/07/24 14:32:31;;;;;;;26.80;19.43;;;;;;;;;;5070672;28;20672;-64
2021/07/24 14:34:59;;;;;;;27.03;17.33;;;;;;;;;;5071452;28;20468;-64
2021/07/24 14:37:35;;;;;;;23.80;19.90;;;;;;;;;;5053693;28;20479;-64
2021/07/24 14:40:05;;;;;;;31.77;18.13;;;;;;;;;;5071278;28;20456;-64
2021/07/24 14:42:33;;;;;;;36.10;29.83;;;;;;;;;;5070911;28;20867;-65
2021/07/24 14:45:00;;;;;;;22.40;16.97;;;;;;;;;;5071328;28;20457;-65
2021/07/24 14:47:28;;;;;;;18.83;13.63;;;;;;;;;;5070975;28;20491;-61
2021/07/24 14:49:55;;;;;;;20.50;13.87;;;;;;;;;;5070838;28;20452;-62
2021/07/24 14:52:23;;;;;;;18.57;13.83;;;;;;;;;;5089505;28;20460;-64
2021/07/24 14:54:58;;;;;;;20.77;17.73;;;;;;;;;;5076810;28;20521;-64
2021/07/24 14:57:29;;;;;;;49.47;38.30;;;;;;;;;;5088913;28;20458;-61
2021/07/24 14:59:57;;;;;;;36.67;29.60;;;;;;;;;;5089342;28;20536;-63
2021/07/24 15:02:25;;;;;;;24.00;18.07;;;;;;;;;;5087665;28;20456;-63
2021/07/24 15:05:04;;;;;;;20.83;17.37;;;;;;;;;;5090043;28;20472;-62
2021/07/24 15:07:34;;;;;;;37.17;30.80;;;;;;;;;;5075076;28;20496;-63
2021/07/24 15:10:02;;;;;;;19.03;15.00;;;;;;;;;;5073073;28;20520;-63
2021/07/24 15:12:48;;;;;;;32.53;23.80;;;;;;;;;;5090430;28;20490;-62
2021/07/24 15:15:32;;;;;;;17.60;15.40;;;;;;;;;;5090736;28;20487;-63
2021/07/24 15:18:08;;;;;;;20.70;15.73;;;;;;;;;;5084279;28;20472;-64
2021/07/24 15:20:36;;;;;;;23.63;16.30;;;;;;;;;;5070131;28;20438;-62
2021/07/24 15:23:11;;;;;;;18.07;15.53;;;;;;;;;;5088507;28;20523;-65
2021/07/24 15:25:40;;;;;;;20.33;16.83;;;;;;;;;;5084225;28;20479;-64
2021/07/24 15:28:07;;;;;;;19.40;15.67;;;;;;;;;;5089327;28;20456;-64
2021/07/24 15:30:50;;;;;;;26.67;22.43;;;;;;;;;;5088533;28;20496;-64
2021/07/24 15:33:18;;;;;;;31.40;24.20;;;;;;;;;;5087413;28;20500;-63
2021/07/24 15:35:45;;;;;;;21.07;17.60;;;;;;;;;;5089791;28;20518;-64
2021/07/24 15:38:13;;;;;;;30.90;19.53;;;;;;;;;;5090054;28;20547;-65
2021/07/24 15:40:40;;;;;;;18.27;14.33;;;;;;;;;;5090102;28;20648;-63
2021/07/24 15:43:08;;;;;;;22.33;17.50;;;;;;;;;;5092651;28;20448;-64
2021/07/24 15:45:37;;;;;;;19.03;14.87;;;;;;;;;;5093031;28;20459;-64